createdAt,value
2022-11-05T00:01:50.672Z,12.28
2022-11-05T00:04:36.447Z,12.37
2022-11-05T00:07:35.085Z,12.42
2022-11-05T00:10:05.386Z,12.11
2022-11-05T00:12:50.982Z,12.24
2022-11-05T00:15:36.709Z,12.28
2022-11-05T00:18:03.943Z,12.42
2022-11-05T00:20:31.044Z,12.40
2022-11-05T00:23:23.916Z,12.21
2022-11-05T00:25:55.360Z,12.30
2022-11-05T00:28:22.223Z,12.49
2022-11-05T00:30:50.261Z,12.45
2022-11-05T00:33:17.207Z,12.21
2022-11-05T00:35:44.226Z,12.47
2022-11-05T00:38:11.360Z,12.58
2022-11-05T00:40:38.704Z,12.34
2022-11-05T00:43:24.010Z,12.14
2022-11-05T00:45:50.814Z,12.56
2022-11-05T00:48:36.113Z,12.46
2022-11-05T00:51:02.853Z,12.43
2022-11-05T00:53:29.996Z,12.32
2022-11-05T00:55:57.011Z,12.13
2022-11-05T00:58:24.444Z,12.13
2022-11-05T01:00:59.543Z,12.50
2022-11-05T01:03:37.929Z,12.52
2022-11-05T01:06:13.815Z,12.37
2022-11-05T01:08:42.485Z,12.28
2022-11-05T01:11:37.214Z,12.50
2022-11-05T01:14:10.295Z,12.43
2022-11-05T01:16:38.655Z,12.48
2022-11-05T01:19:07.485Z,12.49
2022-11-05T01:21:34.621Z,12.25
2022-11-05T01:24:02.565Z,12.59
2022-11-05T01:26:29.648Z,12.54
2022-11-05T01:29:00.619Z,12.53
2022-11-05T01:31:28.748Z,12.38
2022-11-05T01:33:55.628Z,12.54
2022-11-05T01:36:22.564Z,12.52
2022-11-05T01:38:49.491Z,12.19
2022-11-05T01:41:16.415Z,12.59
2022-11-05T01:43:54.622Z,12.13
2022-11-05T01:46:29.707Z,12.54
2022-11-05T01:49:03.550Z,12.38
2022-11-05T01:51:31.074Z,12.45
2022-11-05T01:54:03.631Z,12.49
2022-11-05T01:56:40.131Z,12.25
2022-11-05T01:59:12.342Z,12.30
2022-11-05T02:01:39.384Z,12.34
2022-11-05T02:04:12.100Z,12.40
2022-11-05T02:06:46.373Z,12.37
2022-11-05T02:09:21.270Z,11.96
2022-11-05T02:11:49.943Z,12.31
2022-11-05T02:14:17.100Z,12.10
2022-11-05T02:17:06.382Z,12.26
2022-11-05T02:20:12.807Z,12.09
2022-11-05T02:23:02.773Z,12.26
2022-11-05T02:25:42.119Z,12.20
2022-11-05T02:28:31.939Z,12.08
2022-11-05T02:31:23.559Z,12.09
2022-11-05T02:34:08.498Z,12.18
2022-11-05T02:37:15.099Z,11.81
2022-11-05T02:40:00.162Z,12.06
2022-11-05T02:42:43.865Z,12.07
2022-11-05T02:45:34.839Z,11.94
2022-11-05T02:48:14.576Z,11.74
2022-11-05T02:51:26.788Z,11.65
2022-11-05T02:53:53.607Z,11.72
2022-11-05T02:56:33.042Z,11.58
2022-11-05T02:58:59.947Z,11.38
2022-11-05T03:01:27.143Z,11.57
2022-11-05T03:04:00.873Z,11.43
2022-11-05T03:06:27.730Z,11.69
2022-11-05T03:09:09.671Z,11.69
2022-11-05T03:12:04.888Z,11.71
2022-11-05T03:14:52.871Z,11.40
2022-11-05T03:17:38.447Z,11.70
2022-11-05T03:20:16.547Z,11.59
2022-11-05T03:22:51.636Z,11.33
2022-11-05T03:25:23.089Z,11.24
2022-11-05T03:27:57.813Z,11.45
2022-11-05T03:30:25.641Z,11.38
2022-11-05T03:33:02.104Z,10.70
2022-11-05T03:35:34.991Z,10.84
2022-11-05T03:38:08.092Z,10.69
2022-11-05T03:40:37.433Z,11.06
2022-11-05T03:43:07.610Z,11.14
2022-11-05T03:45:40.651Z,10.90
2022-11-05T03:48:11.010Z,11.14
2022-11-05T03:51:03.678Z,11.16
2022-11-05T03:53:37.106Z,11.10
2022-11-05T03:56:12.963Z,11.12
2022-11-05T03:58:45.734Z,11.09
2022-11-05T04:01:12.876Z,10.97
2022-11-05T04:03:39.804Z,11.09
2022-11-05T04:06:26.725Z,10.79
2022-11-05T04:09:12.508Z,10.77
2022-11-05T04:12:00.592Z,10.64
2022-11-05T04:14:27.554Z,10.67
2022-11-05T04:17:06.552Z,10.55
2022-11-05T04:19:56.633Z,10.92
2022-11-05T04:22:43.691Z,10.84
2022-11-05T04:25:11.467Z,10.81
2022-11-05T04:27:38.351Z,10.79
2022-11-05T04:30:18.648Z,10.70
2022-11-05T04:33:03.710Z,10.79
2022-11-05T04:35:50.777Z,10.61
2022-11-05T04:38:19.781Z,10.70
2022-11-05T04:40:48.269Z,10.66
2022-11-05T04:43:18.791Z,10.75
2022-11-05T04:45:46.054Z,10.73
2022-11-05T04:48:13.483Z,10.67
2022-11-05T04:50:40.363Z,10.65
2022-11-05T04:53:09.319Z,10.48
2022-11-05T04:55:36.552Z,10.51
2022-11-05T04:58:03.623Z,10.63
2022-11-05T05:00:30.632Z,10.37
2022-11-05T05:02:57.570Z,10.38
2022-11-05T05:05:24.489Z,10.15
2022-11-05T05:07:51.527Z,10.34
2022-11-05T05:10:18.518Z,10.52
2022-11-05T05:12:45.443Z,10.05
2022-11-05T05:15:12.355Z,10.11
2022-11-05T05:17:39.215Z,10.20
2022-11-05T05:20:24.942Z,9.98
2022-11-05T05:22:53.551Z,10.10
2022-11-05T05:25:21.049Z,10.23
2022-11-05T05:27:47.983Z,10.19
2022-11-05T05:30:15.012Z,10.18
2022-11-05T05:32:41.908Z,10.23
2022-11-05T05:35:09.466Z,9.96
2022-11-05T05:37:36.369Z,10.10
2022-11-05T05:40:03.583Z,10.19
2022-11-05T05:42:30.581Z,9.94
2022-11-05T05:44:57.640Z,9.97
2022-11-05T05:47:24.523Z,10.16
2022-11-05T05:49:51.494Z,10.33
2022-11-05T05:52:18.795Z,9.82
2022-11-05T05:54:45.739Z,9.83
2022-11-05T05:57:12.716Z,10.12
2022-11-05T05:59:40.133Z,10.48
2022-11-05T06:02:07.164Z,10.40
2022-11-05T06:04:34.296Z,10.80
2022-11-05T06:07:01.277Z,9.90
2022-11-05T06:09:28.170Z,10.68
2022-11-05T06:11:55.184Z,10.97
2022-11-05T06:14:22.057Z,10.78
2022-11-05T06:16:48.944Z,10.64
2022-11-05T06:19:15.787Z,11.02
2022-11-05T06:21:42.863Z,11.35
2022-11-05T06:24:10.538Z,11.37
2022-11-05T06:26:42.825Z,11.21
2022-11-05T06:29:10.746Z,11.42
2022-11-05T06:31:37.613Z,11.52
2022-11-05T06:34:04.550Z,11.50
2022-11-05T06:36:31.525Z,11.27
2022-11-05T06:38:58.450Z,11.85
2022-11-05T06:41:25.468Z,11.79
2022-11-05T06:43:52.453Z,11.86
2022-11-05T06:46:19.914Z,11.97
2022-11-05T06:48:48.610Z,12.01
2022-11-05T06:51:15.663Z,12.06
2022-11-05T06:53:42.832Z,12.30
2022-11-05T06:56:10.387Z,12.33
2022-11-05T06:58:37.498Z,12.62
2022-11-05T07:01:09.457Z,12.63
2022-11-05T07:03:37.659Z,12.76
2022-11-05T07:06:06.405Z,12.52
2022-11-05T07:08:35.215Z,12.81
2022-11-05T07:11:02.318Z,12.98
2022-11-05T07:13:29.348Z,12.84
2022-11-05T07:15:56.669Z,13.18
2022-11-05T07:18:24.045Z,12.96
2022-11-05T07:20:51.011Z,13.31
2022-11-05T07:23:18.014Z,13.44
2022-11-05T07:25:45.223Z,13.59
2022-11-05T07:28:12.332Z,13.34
2022-11-05T07:30:39.264Z,13.76
2022-11-05T07:33:06.210Z,13.74
2022-11-05T07:35:33.455Z,13.90
2022-11-05T07:38:00.408Z,13.79
2022-11-05T07:40:29.198Z,13.96
2022-11-05T07:42:58.713Z,14.11
2022-11-05T07:45:26.893Z,13.91
2022-11-05T07:47:58.679Z,14.08
2022-11-05T07:50:27.789Z,14.18
2022-11-05T07:53:04.028Z,14.10
2022-11-05T07:55:31.362Z,14.21
2022-11-05T07:57:58.316Z,14.41
2022-11-05T08:00:26.601Z,14.46
2022-11-05T08:03:12.191Z,14.51
2022-11-05T08:05:44.576Z,14.60
2022-11-05T08:08:13.551Z,14.38
2022-11-05T08:10:40.863Z,14.71
2022-11-05T08:13:09.184Z,14.77
2022-11-05T08:15:37.068Z,14.70
2022-11-05T08:18:10.619Z,14.79
2022-11-05T08:20:38.656Z,14.79
2022-11-05T08:23:06.150Z,14.88
2022-11-05T08:25:33.158Z,14.87
2022-11-05T08:28:10.478Z,14.95
2022-11-05T08:30:37.485Z,14.45
2022-11-05T08:33:11.065Z,15.02
2022-11-05T08:35:42.450Z,15.16
2022-11-05T08:38:13.826Z,14.59
2022-11-05T08:40:41.949Z,15.19
2022-11-05T08:43:16.306Z,15.03
2022-11-05T08:45:43.243Z,15.11
2022-11-05T08:48:13.297Z,15.23
2022-11-05T08:50:40.699Z,15.20
2022-11-05T08:53:09.358Z,15.39
2022-11-05T08:55:36.935Z,15.48
2022-11-05T08:58:15.464Z,15.53
2022-11-05T09:00:43.698Z,15.41
2022-11-05T09:03:11.252Z,15.42
2022-11-05T09:05:40.277Z,15.54
2022-11-05T09:08:10.472Z,15.68
2022-11-05T09:10:38.143Z,15.60
2022-11-05T09:13:05.440Z,15.71
2022-11-05T09:15:33.582Z,15.82
2022-11-05T09:18:00.475Z,15.83
2022-11-05T09:20:27.455Z,15.59
2022-11-05T09:22:54.464Z,15.61
2022-11-05T09:25:21.475Z,15.77
2022-11-05T09:27:48.431Z,15.84
2022-11-05T09:30:15.874Z,15.72
2022-11-05T09:32:42.879Z,15.84
2022-11-05T09:35:10.393Z,15.96
2022-11-05T09:37:38.151Z,15.82
2022-11-05T09:40:06.127Z,16.06
2022-11-05T09:42:39.697Z,16.04
2022-11-05T09:45:19.092Z,16.02
2022-11-05T09:47:52.472Z,16.00
2022-11-05T09:50:24.476Z,15.99
2022-11-05T09:52:51.589Z,16.03
2022-11-05T09:55:29.637Z,16.15
2022-11-05T09:58:00.238Z,16.22
2022-11-05T10:00:28.818Z,16.23
2022-11-05T10:03:06.457Z,16.17
2022-11-05T10:05:35.077Z,16.09
2022-11-05T10:08:07.765Z,16.23
2022-11-05T10:11:16.573Z,16.52
2022-11-05T10:14:03.112Z,16.57
2022-11-05T10:16:35.293Z,16.55
2022-11-05T10:19:09.918Z,16.38
2022-11-05T10:22:04.983Z,15.95
2022-11-05T10:24:25.080Z,15.80
2022-11-05T10:26:54.894Z,16.27
2022-11-05T10:29:29.698Z,16.86
2022-11-05T10:31:57.699Z,16.92
2022-11-05T10:34:29.533Z,16.65
2022-11-05T10:36:57.569Z,16.67
2022-11-05T10:39:28.179Z,17.12
2022-11-05T10:42:13.536Z,17.08
2022-11-05T10:44:53.727Z,16.96
2022-11-05T10:47:42.416Z,16.58
2022-11-05T10:50:16.861Z,16.61
2022-11-05T10:53:03.565Z,16.82
2022-11-05T10:55:36.054Z,16.77
2022-11-05T10:58:19.745Z,16.78
2022-11-05T11:01:02.811Z,16.32
2022-11-05T11:03:46.054Z,16.54
2022-11-05T11:06:34.706Z,16.84
2022-11-05T11:09:05.830Z,16.74
2022-11-05T11:11:36.560Z,16.76
2022-11-05T11:14:19.909Z,16.70
2022-11-05T11:16:51.807Z,16.65
2022-11-05T11:19:24.999Z,16.74
2022-11-05T11:22:03.960Z,16.72
2022-11-05T11:24:37.764Z,16.77
2022-11-05T11:27:09.786Z,16.59
2022-11-05T11:29:42.889Z,16.62
2022-11-05T11:32:20.372Z,16.72
2022-11-05T11:34:52.997Z,16.82
2022-11-05T11:37:34.190Z,16.98
2022-11-05T11:40:13.205Z,16.96
2022-11-05T11:42:44.205Z,17.11
2022-11-05T11:45:51.970Z,17.29
2022-11-05T11:48:23.272Z,17.12
2022-11-05T11:50:51.098Z,17.32
2022-11-05T11:53:21.056Z,17.37
2022-11-05T11:56:23.726Z,17.25
2022-11-05T11:58:56.464Z,17.09
2022-11-05T12:01:41.344Z,17.19
2022-11-05T12:04:54.083Z,16.88
2022-11-05T12:07:32.195Z,16.52
2022-11-05T12:10:22.138Z,17.03
2022-11-05T12:13:19.385Z,16.96
2022-11-05T12:16:03.932Z,17.13
2022-11-05T12:19:07.849Z,17.12
2022-11-05T12:21:52.574Z,17.27
2022-11-05T12:24:38.863Z,17.37
2022-11-05T12:27:15.903Z,17.29
2022-11-05T12:29:51.096Z,17.07
2022-11-05T12:32:30.250Z,17.41
2022-11-05T12:35:15.507Z,17.36
2022-11-05T12:37:42.820Z,17.52
2022-11-05T12:40:35.437Z,17.37
2022-11-05T12:43:39.537Z,17.50
2022-11-05T12:46:16.848Z,17.37
2022-11-05T12:49:30.879Z,17.47
2022-11-05T12:52:07.371Z,17.61
2022-11-05T12:55:03.421Z,17.52
2022-11-05T12:57:33.611Z,17.55
2022-11-05T13:00:23.324Z,17.55
2022-11-05T13:02:58.357Z,17.12
2022-11-05T13:05:39.199Z,17.34
2022-11-05T13:08:19.024Z,17.38
2022-11-05T13:10:52.053Z,16.61
2022-11-05T13:13:33.789Z,16.97
2022-11-05T13:16:33.564Z,17.16
2022-11-05T13:19:24.994Z,16.95
2022-11-05T13:22:13.476Z,16.96
2022-11-05T13:24:57.175Z,16.53
2022-11-05T13:27:39.151Z,16.32
2022-11-05T13:30:12.711Z,16.10
2022-11-05T13:32:45.326Z,15.45
2022-11-05T13:35:21.307Z,15.52
2022-11-05T13:38:13.816Z,16.10
2022-11-05T13:41:00.070Z,16.25
2022-11-05T13:43:33.019Z,16.22
2022-11-05T13:46:11.915Z,16.23
2022-11-05T13:49:05.326Z,16.30
2022-11-05T13:51:54.898Z,16.43
2022-11-05T13:54:37.057Z,16.05
2022-11-05T13:57:14.225Z,15.82
2022-11-05T14:00:21.342Z,16.02
2022-11-05T14:02:50.846Z,15.86
2022-11-05T14:05:24.910Z,15.73
2022-11-05T14:07:53.612Z,15.69
2022-11-05T14:10:37.554Z,15.82
2022-11-05T14:13:31.320Z,15.95
2022-11-05T14:16:04.784Z,15.78
2022-11-05T14:18:41.997Z,15.78
2022-11-05T14:21:26.969Z,15.79
2022-11-05T14:23:56.246Z,15.67
2022-11-05T14:26:24.673Z,15.60
2022-11-05T14:29:11.477Z,15.72
2022-11-05T14:34:44.056Z,15.57
2022-11-05T14:37:10.888Z,15.64
2022-11-05T14:39:39.400Z,15.47
2022-11-05T14:42:21.009Z,15.73
2022-11-05T14:45:15.841Z,15.70
2022-11-05T14:47:52.395Z,15.31
2022-11-05T14:50:25.737Z,15.17
2022-11-05T14:52:58.148Z,15.23
2022-11-05T14:55:43.325Z,14.89
2022-11-05T14:58:34.143Z,14.95
2022-11-05T15:01:03.881Z,15.06
2022-11-05T15:03:45.529Z,14.98
2022-11-05T15:06:21.401Z,15.01
2022-11-05T15:08:48.240Z,15.02
2022-11-05T15:11:38.559Z,15.00
2022-11-05T15:14:16.508Z,14.93
2022-11-05T15:16:48.725Z,14.78
2022-11-05T15:19:37.205Z,14.83
2022-11-05T15:22:12.622Z,14.88
2022-11-05T15:24:42.896Z,14.77
2022-11-05T15:27:29.490Z,14.71
2022-11-05T15:29:57.588Z,14.60
2022-11-05T15:32:26.984Z,14.46
2022-11-05T15:34:56.037Z,14.08
2022-11-05T15:37:27.305Z,14.79
2022-11-05T15:39:55.633Z,14.56
2022-11-05T15:42:24.208Z,14.80
2022-11-05T15:44:53.767Z,14.83
2022-11-05T15:47:29.221Z,14.84
2022-11-05T15:49:57.646Z,14.88
2022-11-05T15:52:34.823Z,14.68
2022-11-05T15:55:13.751Z,14.85
2022-11-05T15:58:00.178Z,14.80
2022-11-05T16:00:29.834Z,14.57
2022-11-05T16:03:05.460Z,14.73
2022-11-05T16:05:43.315Z,14.68
2022-11-05T16:08:30.016Z,14.70
2022-11-05T16:11:00.523Z,14.79
2022-11-05T16:13:41.251Z,14.68
2022-11-05T16:16:13.887Z,14.59
2022-11-05T16:18:42.521Z,14.55
2022-11-05T16:21:15.742Z,14.33
2022-11-05T16:23:48.709Z,14.52
2022-11-05T16:27:01.294Z,13.73
2022-11-05T16:29:34.815Z,14.26
2022-11-05T16:32:05.054Z,14.11
2022-11-05T16:34:35.767Z,13.84
2022-11-05T16:37:05.313Z,13.88
2022-11-05T16:39:32.756Z,14.29
2022-11-05T16:42:00.035Z,14.32
2022-11-05T16:44:27.383Z,14.10
2022-11-05T16:46:54.330Z,14.04
2022-11-05T16:49:21.371Z,14.13
2022-11-05T16:51:48.420Z,14.10
2022-11-05T16:54:15.345Z,14.26
2022-11-05T16:56:43.954Z,14.25
2022-11-05T16:59:13.884Z,14.04
2022-11-05T17:01:42.700Z,14.11
2022-11-05T17:04:13.301Z,14.10
2022-11-05T17:06:40.228Z,14.19
2022-11-05T17:09:07.218Z,14.25
2022-11-05T17:11:34.237Z,14.02
2022-11-05T17:14:01.217Z,14.07
2022-11-05T17:16:28.321Z,13.83
2022-11-05T17:18:55.388Z,13.78
2022-11-05T17:21:22.316Z,13.93
2022-11-05T17:23:49.328Z,13.91
2022-11-05T17:26:16.290Z,13.96
2022-11-05T17:28:43.221Z,13.55
2022-11-05T17:31:13.191Z,13.65
2022-11-05T17:33:41.364Z,13.46
2022-11-05T17:36:11.341Z,13.55
2022-11-05T17:38:38.363Z,13.57
2022-11-05T17:41:20.143Z,13.73
2022-11-05T17:43:48.531Z,13.39
2022-11-05T17:46:17.199Z,13.50
2022-11-05T17:48:44.982Z,13.35
2022-11-05T17:51:15.287Z,13.57
2022-11-05T17:53:43.102Z,13.30
2022-11-05T17:56:22.154Z,13.33
2022-11-05T17:58:55.674Z,13.44
2022-11-05T18:01:31.905Z,13.28
2022-11-05T18:04:02.426Z,13.48
2022-11-05T18:06:32.153Z,13.41
2022-11-05T18:08:59.149Z,13.13
2022-11-05T18:11:26.113Z,13.12
2022-11-05T18:13:52.991Z,13.25
2022-11-05T18:16:19.974Z,13.23
2022-11-05T18:18:48.178Z,13.27
2022-11-05T18:21:15.898Z,13.37
2022-11-05T18:23:43.059Z,13.39
2022-11-05T18:26:14.859Z,12.87
2022-11-05T18:28:42.843Z,13.05
2022-11-05T18:31:18.342Z,13.01
2022-11-05T18:33:45.500Z,13.04
2022-11-05T18:36:23.059Z,13.18
2022-11-05T18:38:49.986Z,13.04
2022-11-05T18:41:17.920Z,12.62
2022-11-05T18:43:44.976Z,12.88
2022-11-05T18:46:29.274Z,12.99
2022-11-05T18:49:00.167Z,12.54
2022-11-05T18:51:28.101Z,12.82
2022-11-05T18:53:55.751Z,12.44
2022-11-05T18:56:23.051Z,12.61
2022-11-05T18:59:14.736Z,12.71
2022-11-05T19:01:40.669Z,12.44
2022-11-05T19:04:07.702Z,12.44
2022-11-05T19:06:35.504Z,12.57
2022-11-05T19:09:04.043Z,12.66
2022-11-05T19:11:31.529Z,12.73
2022-11-05T19:13:58.776Z,12.75
2022-11-05T19:16:28.080Z,12.50
2022-11-05T19:18:57.797Z,12.46
2022-11-05T19:21:26.223Z,12.73
2022-11-05T19:23:53.911Z,12.78
2022-11-05T19:26:28.392Z,12.67
2022-11-05T19:28:56.845Z,12.30
2022-11-05T19:31:23.903Z,12.45
2022-11-05T19:33:52.338Z,12.39
2022-11-05T19:36:20.760Z,12.43
2022-11-05T19:38:49.815Z,12.37
2022-11-05T19:41:21.656Z,12.53
2022-11-05T19:43:48.788Z,12.51
2022-11-05T19:46:18.388Z,12.58
2022-11-05T19:48:45.913Z,12.57
2022-11-05T19:51:21.708Z,12.56
2022-11-05T19:53:48.966Z,12.33
2022-11-05T19:56:18.809Z,12.46
2022-11-05T19:58:46.491Z,12.19
2022-11-05T20:01:14.713Z,12.33
2022-11-05T20:03:42.106Z,12.30
2022-11-05T20:06:12.308Z,12.15
2022-11-05T20:08:59.887Z,11.98
2022-11-05T20:11:27.699Z,12.06
2022-11-05T20:13:54.646Z,11.73
2022-11-05T20:16:27.293Z,12.06
2022-11-05T20:18:54.953Z,11.76
2022-11-05T20:21:21.845Z,11.70
2022-11-05T20:23:48.835Z,11.79
2022-11-05T20:26:16.285Z,11.66
2022-11-05T20:28:43.918Z,11.43
2022-11-05T20:31:13.909Z,11.33
2022-11-05T20:33:41.615Z,11.46
2022-11-05T20:36:12.467Z,11.78
2022-11-05T20:38:39.713Z,11.59
2022-11-05T20:41:09.320Z,11.63
2022-11-05T20:43:37.360Z,11.36
2022-11-05T20:46:04.738Z,11.74
2022-11-05T20:48:33.147Z,11.58
2022-11-05T20:51:05.905Z,11.64
2022-11-05T20:53:33.173Z,11.48
2022-11-05T20:56:05.043Z,11.57
2022-11-05T20:58:36.176Z,11.58
2022-11-05T21:01:04.588Z,11.70
2022-11-05T21:03:31.843Z,11.57
2022-11-05T21:06:00.129Z,11.42
2022-11-05T21:08:27.943Z,11.23
2022-11-05T21:10:56.198Z,11.60
2022-11-05T21:13:25.147Z,11.47
2022-11-05T21:15:54.750Z,11.10
2022-11-05T21:18:26.001Z,10.98
2022-11-05T21:20:53.840Z,10.91
2022-11-05T21:23:21.039Z,11.14
2022-11-05T21:25:48.339Z,11.25
2022-11-05T21:28:16.131Z,11.35
2022-11-05T21:30:49.211Z,11.19
2022-11-05T21:33:18.872Z,11.16
2022-11-05T21:35:47.988Z,10.84
2022-11-05T21:38:16.861Z,11.00
2022-11-05T21:40:45.091Z,10.57
2022-11-05T21:43:13.104Z,10.87
2022-11-05T21:45:41.352Z,10.58
2022-11-05T21:48:08.959Z,10.69
2022-11-05T21:50:57.901Z,10.86
2022-11-05T21:53:43.472Z,10.77
2022-11-05T21:56:39.386Z,10.89
2022-11-05T21:59:25.498Z,10.93
2022-11-05T22:02:01.511Z,10.81
2022-11-05T22:04:34.822Z,10.97
2022-11-05T22:07:01.775Z,10.73
2022-11-05T22:09:28.776Z,10.55
2022-11-05T22:11:56.216Z,10.69
2022-11-05T22:14:24.081Z,10.73
2022-11-05T22:16:51.110Z,10.71
2022-11-05T22:19:18.571Z,10.46
2022-11-05T22:21:46.162Z,10.67
2022-11-05T22:24:13.351Z,10.88
2022-11-05T22:26:40.282Z,10.78
2022-11-05T22:29:07.297Z,10.63
2022-11-05T22:31:36.473Z,10.51
2022-11-05T22:34:05.109Z,10.79
2022-11-05T22:36:35.488Z,10.57
2022-11-05T22:39:03.290Z,10.76
2022-11-05T22:41:30.360Z,10.84
2022-11-05T22:43:58.061Z,10.84
2022-11-05T22:46:26.893Z,10.54
2022-11-05T22:48:54.261Z,10.92
2022-11-05T22:51:23.457Z,11.00
2022-11-05T22:53:51.037Z,10.65
2022-11-05T22:56:23.286Z,10.82
2022-11-05T22:58:50.954Z,10.90
2022-11-05T23:01:18.993Z,10.75
2022-11-05T23:03:47.426Z,10.89
2022-11-05T23:06:41.418Z,10.92
2022-11-05T23:09:36.822Z,10.81
2022-11-05T23:12:06.332Z,10.78
2022-11-05T23:14:33.265Z,10.76
2022-11-05T23:17:18.719Z,10.66
2022-11-05T23:20:04.677Z,10.76
2022-11-05T23:22:50.707Z,10.76
2022-11-05T23:25:22.122Z,10.86
2022-11-05T23:27:52.147Z,10.75
2022-11-05T23:30:22.364Z,10.93
2022-11-05T23:32:50.204Z,10.87
2022-11-05T23:35:17.560Z,10.85
2022-11-05T23:38:03.180Z,10.97
2022-11-05T23:40:51.849Z,10.94
2022-11-05T23:43:37.335Z,11.01
2022-11-05T23:46:22.957Z,10.85
2022-11-05T23:48:50.799Z,10.97
2022-11-05T23:51:17.656Z,10.93
2022-11-05T23:53:44.586Z,10.97
2022-11-05T23:56:14.183Z,10.89
2022-11-05T23:58:42.169Z,11.06
